createdAt,value
2017-11-30T00:01:09.996Z,94364
2017-11-30T00:06:51.361Z,94362
2017-11-30T00:12:19.506Z,94349
2017-11-30T00:17:47.657Z,94360
2017-11-30T00:23:18.835Z,94358
2017-11-30T00:28:47.025Z,94358
2017-11-30T00:34:16.111Z,94354
2017-11-30T00:39:45.005Z,94357
2017-11-30T00:45:17.375Z,94365
2017-11-30T00:50:45.490Z,94361
2017-11-30T00:56:14.393Z,94368
2017-11-30T01:02:03.356Z,94373
2017-11-30T01:07:31.515Z,94377
2017-11-30T01:13:03.439Z,94388
2017-11-30T01:18:31.590Z,94379
2017-11-30T01:24:00.513Z,94375
2017-11-30T01:29:29.421Z,94380
2017-11-30T01:34:57.812Z,94378
2017-11-30T01:40:28.251Z,94382
2017-11-30T01:45:56.400Z,94380
2017-11-30T01:51:25.125Z,94385
2017-11-30T01:56:53.283Z,94379
2017-11-30T02:02:21.421Z,94375
2017-11-30T02:07:49.579Z,94365
2017-11-30T02:13:17.712Z,94366
2017-11-30T02:19:02.537Z,94384
2017-11-30T02:24:30.676Z,94376
2017-11-30T02:30:11.100Z,94384
2017-11-30T02:35:39.475Z,94385
2017-11-30T02:41:07.609Z,94387
2017-11-30T02:46:35.748Z,94381
2017-11-30T02:52:03.886Z,94376
2017-11-30T02:57:32.040Z,94372
2017-11-30T03:03:01.015Z,94373
2017-11-30T03:08:29.935Z,94382
2017-11-30T03:13:58.102Z,94387
2017-11-30T03:19:26.250Z,94384
2017-11-30T03:24:55.426Z,94389
2017-11-30T03:30:23.587Z,94386
2017-11-30T03:35:51.757Z,94380
2017-11-30T03:41:19.896Z,94384
2017-11-30T03:46:48.054Z,94386
2017-11-30T03:52:16.201Z,94391
2017-11-30T03:57:44.354Z,94398
2017-11-30T04:03:12.494Z,94391
2017-11-30T04:08:42.588Z,94393
2017-11-30T04:14:11.495Z,94389
2017-11-30T04:19:39.644Z,94394
2017-11-30T04:25:28.185Z,94402
2017-11-30T04:30:56.337Z,94396
2017-11-30T04:36:24.723Z,94399
2017-11-30T04:41:52.883Z,94405
2017-11-30T04:47:21.026Z,94404
2017-11-30T04:52:49.947Z,94406
2017-11-30T04:58:18.100Z,94398
2017-11-30T05:03:47.019Z,94402
2017-11-30T05:09:15.922Z,94409
2017-11-30T05:14:44.072Z,94402
2017-11-30T05:20:13.245Z,94397
2017-11-30T05:25:44.970Z,94394
2017-11-30T05:31:13.122Z,94396
2017-11-30T05:36:43.232Z,94391
2017-11-30T05:42:13.094Z,94397
2017-11-30T05:47:48.466Z,94389
2017-11-30T05:53:16.641Z,94381
2017-11-30T05:58:45.750Z,94378
2017-11-30T06:04:14.671Z,94373
2017-11-30T06:09:42.825Z,94371
2017-11-30T06:15:10.985Z,94365
2017-11-30T06:20:39.148Z,94362
2017-11-30T06:26:08.070Z,94360
2017-11-30T06:31:36.241Z,94369
2017-11-30T06:37:04.394Z,94372
2017-11-30T06:42:32.552Z,94374
2017-11-30T06:48:00.720Z,94381
2017-11-30T06:53:28.891Z,94392
2017-11-30T06:58:57.805Z,94391
2017-11-30T07:04:26.736Z,94390
2017-11-30T07:09:54.908Z,94406
2017-11-30T07:15:23.099Z,94399
2017-11-30T07:20:51.254Z,94389
2017-11-30T07:26:19.412Z,94405
2017-11-30T07:31:47.591Z,94408
2017-11-30T07:37:15.739Z,94398
2017-11-30T07:42:43.881Z,94401
2017-11-30T07:48:12.017Z,94406
2017-11-30T07:53:40.948Z,94398
2017-11-30T07:59:09.865Z,94385
2017-11-30T08:04:38.002Z,94392
2017-11-30T08:10:06.211Z,94400
2017-11-30T08:15:34.389Z,94397
2017-11-30T08:21:02.528Z,94392
2017-11-30T08:26:30.677Z,94398
2017-11-30T08:31:58.825Z,94401
2017-11-30T08:37:26.999Z,94411
2017-11-30T08:42:55.152Z,94420
2017-11-30T08:48:23.300Z,94422
2017-11-30T08:53:51.435Z,94413
2017-11-30T08:59:19.571Z,94419
2017-11-30T09:04:47.726Z,94432
2017-11-30T09:10:16.666Z,94438
2017-11-30T09:15:44.807Z,94429
2017-11-30T09:21:12.975Z,94433
2017-11-30T09:26:41.142Z,94425
2017-11-30T09:32:09.311Z,94424
2017-11-30T09:37:37.448Z,94419
2017-11-30T09:43:05.673Z,94427
2017-11-30T09:48:34.652Z,94411
2017-11-30T09:54:06.115Z,94424
2017-11-30T09:59:37.033Z,94424
2017-11-30T10:05:05.313Z,94418
2017-11-30T10:10:34.248Z,94419
2017-11-30T10:16:03.210Z,94419
2017-11-30T10:21:31.374Z,94418
2017-11-30T10:26:59.531Z,94417
2017-11-30T10:32:28.470Z,94407
2017-11-30T10:37:57.375Z,94413
2017-11-30T10:43:26.381Z,94411
2017-11-30T10:48:55.522Z,94427
2017-11-30T10:54:24.605Z,94413
2017-11-30T11:00:05.321Z,94407
2017-11-30T11:05:34.446Z,94421
2017-11-30T11:11:02.597Z,94413
2017-11-30T11:16:30.736Z,94419
2017-11-30T11:21:59.660Z,94425
2017-11-30T11:27:27.836Z,94426
2017-11-30T11:32:56.018Z,94419
2017-11-30T11:38:25.080Z,94426
2017-11-30T11:43:53.523Z,94412
2017-11-30T11:49:21.751Z,94428
2017-11-30T11:54:49.954Z,94429
2017-11-30T12:00:18.121Z,94420
2017-11-30T12:05:46.273Z,94418
2017-11-30T12:11:14.419Z,94422
2017-11-30T12:16:42.575Z,94424
2017-11-30T12:22:10.714Z,94423
2017-11-30T12:27:38.853Z,94413
2017-11-30T12:33:06.992Z,94420
2017-11-30T12:38:35.145Z,94417
2017-11-30T12:44:03.277Z,94428
2017-11-30T12:49:33.352Z,94419
2017-11-30T12:55:02.274Z,94416
2017-11-30T13:00:30.408Z,94406
2017-11-30T13:05:58.559Z,94411
2017-11-30T13:11:26.723Z,94418
2017-11-30T13:16:54.892Z,94416
2017-11-30T13:22:25.058Z,94435
2017-11-30T13:27:53.509Z,94418
2017-11-30T13:33:21.672Z,94405
2017-11-30T13:38:49.814Z,94415
2017-11-30T13:44:18.733Z,94402
2017-11-30T13:49:46.853Z,94421
2017-11-30T13:55:14.995Z,94421
2017-11-30T14:00:43.135Z,94425
2017-11-30T14:06:11.274Z,94432
2017-11-30T14:11:39.398Z,94442
2017-11-30T14:17:07.544Z,94440
2017-11-30T14:22:35.660Z,94445
2017-11-30T14:28:03.785Z,94449
2017-11-30T14:33:31.926Z,94456
2017-11-30T14:39:01.725Z,94455
2017-11-30T14:44:32.522Z,94463
2017-11-30T14:50:00.655Z,94461
2017-11-30T14:55:28.782Z,94476
2017-11-30T15:00:56.914Z,94481
2017-11-30T15:06:25.845Z,94487
2017-11-30T15:11:53.995Z,94485
2017-11-30T15:17:22.136Z,94490
2017-11-30T15:22:52.233Z,94492
2017-11-30T15:28:20.678Z,94500
2017-11-30T15:33:49.587Z,94503
2017-11-30T15:39:26.288Z,94505
2017-11-30T15:44:55.260Z,94504
2017-11-30T15:50:23.439Z,94507
2017-11-30T15:55:51.614Z,94511
2017-11-30T16:01:20.514Z,94505
2017-11-30T16:06:48.658Z,94515
2017-11-30T16:12:16.805Z,94523
2017-11-30T16:17:51.396Z,94521
2017-11-30T16:23:19.539Z,94527
2017-11-30T16:28:47.690Z,94522
2017-11-30T16:34:15.810Z,94530
2017-11-30T16:39:44.684Z,94543
2017-11-30T16:45:14.736Z,94551
2017-11-30T16:50:43.634Z,94553
2017-11-30T16:56:17.412Z,94546
2017-11-30T17:01:45.576Z,94549
2017-11-30T17:07:13.744Z,94550
2017-11-30T17:12:41.886Z,94561
2017-11-30T17:18:10.809Z,94554
2017-11-30T17:23:38.960Z,94560
2017-11-30T17:29:07.095Z,94568
2017-11-30T17:34:35.231Z,94572
2017-11-30T17:40:03.380Z,94570
2017-11-30T17:45:32.306Z,94574
2017-11-30T17:51:00.477Z,94574
2017-11-30T17:56:28.641Z,94578
2017-11-30T18:01:56.814Z,94581
2017-11-30T18:07:24.981Z,94578
2017-11-30T18:12:53.137Z,94585
2017-11-30T18:18:23.015Z,94589
2017-11-30T18:24:12.855Z,94593
2017-11-30T18:29:41.002Z,94592
2017-11-30T18:35:09.287Z,94596
2017-11-30T18:40:37.452Z,94591
2017-11-30T18:46:07.657Z,94594
2017-11-30T18:51:40.079Z,94594
2017-11-30T18:57:11.940Z,94599
2017-11-30T19:02:40.089Z,94601
2017-11-30T19:08:08.222Z,94586
2017-11-30T19:13:41.204Z,94593
2017-11-30T19:19:09.355Z,94588
2017-11-30T19:24:37.517Z,94590
2017-11-30T19:30:05.826Z,94596
2017-11-30T19:35:34.738Z,94599
2017-11-30T19:41:02.877Z,94597
2017-11-30T19:46:33.748Z,94613
2017-11-30T19:52:01.916Z,94610
2017-11-30T19:57:30.140Z,94614
2017-11-30T20:02:58.325Z,94615
2017-11-30T20:08:28.223Z,94613
2017-11-30T20:13:57.332Z,94616
2017-11-30T20:19:27.501Z,94623
2017-11-30T20:24:55.707Z,94615
2017-11-30T20:30:24.933Z,94630
2017-11-30T20:35:53.093Z,94623
2017-11-30T20:41:24.452Z,94620
2017-11-30T20:46:52.652Z,94625
2017-11-30T20:52:20.788Z,94632
2017-11-30T20:57:49.885Z,94643
2017-11-30T21:03:18.028Z,94635
2017-11-30T21:08:47.097Z,94634
2017-11-30T21:14:15.255Z,94643
2017-11-30T21:19:43.397Z,94643
2017-11-30T21:25:11.601Z,94642
2017-11-30T21:30:39.744Z,94641
2017-11-30T21:36:07.977Z,94633
2017-11-30T21:41:36.274Z,94634
2017-11-30T21:47:04.484Z,94636
2017-11-30T21:52:32.811Z,94639
2017-11-30T21:58:01.107Z,94648
2017-11-30T22:03:30.011Z,94644
2017-11-30T22:08:58.168Z,94645
2017-11-30T22:14:27.083Z,94648
2017-11-30T22:19:55.235Z,94649
2017-11-30T22:25:23.398Z,94650
2017-11-30T22:30:59.415Z,94653
2017-11-30T22:36:27.579Z,94670
2017-11-30T22:41:55.737Z,94666
2017-11-30T22:47:25.840Z,94663
2017-11-30T22:52:58.004Z,94664
2017-11-30T22:58:26.153Z,94661
2017-11-30T23:03:54.335Z,94658
2017-11-30T23:09:22.532Z,94655
2017-11-30T23:14:50.748Z,94651
2017-11-30T23:20:19.649Z,94643
2017-11-30T23:25:48.678Z,94644
2017-11-30T23:31:17.068Z,94647
2017-11-30T23:36:45.966Z,94648
2017-11-30T23:42:14.135Z,94653
2017-11-30T23:47:42.468Z,94632
2017-11-30T23:53:10.612Z,94637
2017-11-30T23:58:44.347Z,94641
